Time;durP1;ratioP1;P1;durP2;ratioP2;P2;SDS_P1;SDS_P2;PMS_P1;PMS_P2;Temp;Humidity;BMP_temperature;BMP_pressure;BME280_temperature;BME280_humidity;BME280_pressure;Samples;Min_cycle;Max_cycle;Signal;HPM_P1;HPM_P2
2022/03/27 00:00:17;;;;;;;2.92;2.72;;;10.70;97.60;;;;;;5030752;28;20204;-62
2022/03/27 00:02:44;;;;;;;3.30;3.10;;;10.70;97.90;;;;;;5023289;28;20232;-62
2022/03/27 00:05:12;;;;;;;3.15;2.70;;;10.80;97.60;;;;;;5012552;28;20205;-61
2022/03/27 00:07:39;;;;;;;2.58;2.47;;;10.70;97.70;;;;;;5017183;28;20205;-62
2022/03/27 00:10:08;;;;;;;2.92;2.72;;;10.80;98.00;;;;;;5026102;28;20205;-62
2022/03/27 00:12:35;;;;;;;2.75;2.58;;;10.70;97.50;;;;;;5030071;28;20268;-61
2022/03/27 00:15:02;;;;;;;2.65;2.45;;;10.70;97.40;;;;;;5030184;28;20197;-61
2022/03/27 00:17:32;;;;;;;3.08;2.65;;;10.80;97.40;;;;;;5032943;28;20200;-61
2022/03/27 00:20:00;;;;;;;2.75;2.55;;;10.70;97.50;;;;;;5027820;28;20196;-62
2022/03/27 00:22:28;;;;;;;3.05;2.72;;;10.70;97.60;;;;;;5031186;28;20235;-62
2022/03/27 00:24:55;;;;;;;3.40;3.10;;;10.60;97.70;;;;;;5033464;28;20201;-61
2022/03/27 00:27:23;;;;;;;3.10;2.83;;;10.60;97.80;;;;;;5028455;28;20228;-62
2022/03/27 00:29:50;;;;;;;2.90;2.60;;;10.50;97.70;;;;;;5027060;28;20204;-61
2022/03/27 00:32:17;;;;;;;2.60;2.40;;;10.50;97.90;;;;;;5029687;28;20225;-62
2022/03/27 00:34:45;;;;;;;2.75;2.55;;;10.50;98.10;;;;;;5032466;28;20287;-61
2022/03/27 00:37:12;;;;;;;2.97;2.77;;;10.50;97.90;;;;;;5031025;28;20210;-61
2022/03/27 00:39:39;;;;;;;3.00;2.80;;;10.50;97.90;;;;;;5035170;28;20201;-61
2022/03/27 00:42:07;;;;;;;2.95;2.75;;;10.40;97.80;;;;;;5029994;28;20224;-63
2022/03/27 00:44:34;;;;;;;3.10;2.90;;;10.40;97.70;;;;;;5030479;28;20743;-62
2022/03/27 00:47:01;;;;;;;2.50;2.40;;;10.50;97.70;;;;;;5030675;28;20248;-62
2022/03/27 00:49:29;;;;;;;2.72;2.63;;;10.50;97.80;;;;;;5030029;28;20246;-62
2022/03/27 00:51:57;;;;;;;2.90;2.70;;;10.60;97.80;;;;;;5029908;28;20886;-62
2022/03/27 00:54:24;;;;;;;3.10;2.78;;;10.70;97.90;;;;;;5029701;28;20746;-61
2022/03/27 00:56:51;;;;;;;3.20;3.00;;;10.70;97.80;;;;;;5029520;28;20264;-61
2022/03/27 00:59:18;;;;;;;3.10;2.90;;;10.70;98.00;;;;;;5029500;28;20287;-61
2022/03/27 01:01:45;;;;;;;2.85;2.65;;;10.50;98.20;;;;;;5029914;28;20311;-62
2022/03/27 01:04:12;;;;;;;2.40;2.30;;;10.40;98.40;;;;;;5048332;22;20240;-66
2022/03/27 01:06:41;;;;;;;2.78;2.60;;;10.30;98.60;;;;;;5028237;28;20375;-68
2022/03/27 01:11:56;;;;;;;3.17;2.97;;;10.30;98.70;;;;;;5047134;28;20211;-66
2022/03/27 01:14:28;;;;;;;3.22;3.00;;;10.20;98.40;;;;;;5040608;28;20246;-68
2022/03/27 01:17:01;;;;;;;3.30;3.00;;;10.20;98.40;;;;;;5030581;28;20288;-67
2022/03/27 01:19:28;;;;;;;3.17;2.97;;;10.10;98.50;;;;;;5034608;28;20243;-65
2022/03/27 01:21:57;;;;;;;4.68;3.30;;;10.00;98.40;;;;;;5045341;28;20213;-66
2022/03/27 01:24:24;;;;;;;3.22;3.03;;;9.90;99.10;;;;;;5032140;28;20374;-67
2022/03/27 01:26:51;;;;;;;4.03;3.10;;;9.90;99.10;;;;;;5032604;28;20208;-63
2022/03/27 01:29:18;;;;;;;3.72;3.42;;;9.90;99.10;;;;;;5029724;28;20219;-67
2022/03/27 01:31:46;;;;;;;4.15;3.17;;;9.90;99.30;;;;;;5030600;28;20201;-66
2022/03/27 01:34:13;;;;;;;3.20;3.00;;;9.90;99.50;;;;;;5029178;28;20769;-66
2022/03/27 01:36:40;;;;;;;3.40;3.10;;;9.80;99.50;;;;;;5031969;28;20216;-68
2022/03/27 01:39:10;;;;;;;3.13;2.92;;;9.80;99.70;;;;;;5040135;28;20270;-68
2022/03/27 01:41:37;;;;;;;2.60;2.50;;;9.80;99.80;;;;;;5034738;28;20293;-69
2022/03/27 01:44:05;;;;;;;3.00;2.80;;;9.80;99.90;;;;;;5033108;28;20212;-64
2022/03/27 01:46:33;;;;;;;3.20;3.00;;;9.80;99.90;;;;;;5036017;28;20243;-66
2022/03/27 01:49:01;;;;;;;3.60;3.30;;;9.70;99.90;;;;;;5031488;28;20233;-67
2022/03/27 01:51:28;;;;;;;2.90;2.70;;;9.60;99.90;;;;;;5032681;28;20200;-69
2022/03/27 01:53:56;;;;;;;2.88;2.67;;;9.60;99.90;;;;;;5032323;28;20255;-64
2022/03/27 01:56:25;;;;;;;3.27;3.00;;;9.60;99.90;;;;;;5031675;28;20226;-68
2022/03/27 01:58:52;;;;;;;3.35;3.03;;;9.60;99.90;;;;;;5031592;28;20279;-66
2022/03/27 02:01:20;;;;;;;2.78;2.58;;;9.50;99.90;;;;;;5021718;28;20219;-68
2022/03/27 02:03:47;;;;;;;2.93;2.73;;;9.60;99.90;;;;;;5036609;28;20256;-67
2022/03/27 02:06:15;;;;;;;2.88;2.67;;;9.60;99.90;;;;;;5044804;28;20862;-69
2022/03/27 02:08:43;;;;;;;2.97;2.77;;;9.50;99.90;;;;;;5031950;28;20211;-65
2022/03/27 02:11:13;;;;;;;2.95;2.75;;;9.50;99.90;;;;;;5032110;28;20209;-65
2022/03/27 02:13:41;;;;;;;3.25;3.00;;;9.40;99.90;;;;;;5032320;28;20239;-67
2022/03/27 02:16:08;;;;;;;3.50;3.20;;;9.30;99.90;;;;;;5040815;28;20268;-68
2022/03/27 02:18:36;;;;;;;4.15;2.80;;;9.20;99.90;;;;;;5036750;28;20284;-68
2022/03/27 02:21:03;;;;;;;3.47;3.05;;;9.10;99.90;;;;;;5031028;28;20295;-65
2022/03/27 02:23:31;;;;;;;3.30;3.10;;;9.10;99.90;;;;;;5032430;28;20181;-65
2022/03/27 02:25:58;;;;;;;3.42;3.13;;;9.10;99.90;;;;;;5034204;28;20220;-68
2022/03/27 02:28:25;;;;;;;3.15;2.95;;;9.00;99.90;;;;;;5033240;28;21020;-66
2022/03/27 02:30:54;;;;;;;3.60;3.10;;;9.00;99.90;;;;;;5031094;28;20307;-67
2022/03/27 02:33:21;;;;;;;3.20;2.90;;;9.00;99.90;;;;;;5030602;28;20278;-68
2022/03/27 02:35:48;;;;;;;3.42;3.22;;;9.00;99.90;;;;;;5033354;28;20844;-66
2022/03/27 02:38:15;;;;;;;3.35;3.15;;;9.00;99.90;;;;;;5036831;28;20236;-68
2022/03/27 02:40:44;;;;;;;3.70;3.40;;;8.90;99.90;;;;;;5036391;28;20229;-67
2022/03/27 02:43:11;;;;;;;3.33;3.13;;;8.90;99.90;;;;;;5031806;28;20299;-68
2022/03/27 02:45:39;;;;;;;3.50;3.20;;;8.90;99.90;;;;;;5030860;28;20260;-67
2022/03/27 02:48:08;;;;;;;3.40;3.20;;;8.90;99.90;;;;;;5032094;28;20208;-66
2022/03/27 02:50:37;;;;;;;3.50;3.20;;;8.80;99.90;;;;;;5032758;28;20371;-68
2022/03/27 02:53:04;;;;;;;3.10;2.90;;;8.80;99.90;;;;;;5028116;28;20584;-67
2022/03/27 02:55:31;;;;;;;3.65;3.35;;;8.90;99.90;;;;;;5027565;28;20289;-68
2022/03/27 02:57:59;;;;;;;3.05;2.85;;;8.90;99.90;;;;;;5033609;28;20659;-68
2022/03/27 03:00:26;;;;;;;3.55;3.25;;;8.90;99.90;;;;;;5030279;28;20210;-66
2022/03/27 03:02:53;;;;;;;3.22;3.03;;;8.90;99.90;;;;;;5015992;28;20192;-66
2022/03/27 03:05:22;;;;;;;3.40;3.10;;;8.90;99.90;;;;;;5019848;28;20229;-66
2022/03/27 03:07:50;;;;;;;3.38;3.10;;;9.00;99.90;;;;;;5041895;28;20201;-65
2022/03/27 03:10:17;;;;;;;3.58;3.28;;;9.00;99.90;;;;;;5016395;28;20292;-67
2022/03/27 03:12:45;;;;;;;3.15;2.95;;;9.00;99.90;;;;;;5029322;28;20201;-66
2022/03/27 03:15:13;;;;;;;3.33;3.13;;;9.00;99.90;;;;;;5031203;28;20331;-67
2022/03/27 03:17:40;;;;;;;3.30;3.03;;;8.90;99.90;;;;;;5029891;28;20213;-67
2022/03/27 03:20:08;;;;;;;2.72;2.60;;;8.90;99.90;;;;;;5029955;28;20205;-67
2022/03/27 03:22:40;;;;;;;3.08;2.88;;;8.80;99.90;;;;;;5030279;28;20262;-68
2022/03/27 03:25:08;;;;;;;3.22;3.03;;;8.70;99.90;;;;;;5028897;28;20248;-68
2022/03/27 03:27:35;;;;;;;2.90;2.70;;;8.70;99.90;;;;;;5028682;28;20197;-64
2022/03/27 03:30:02;;;;;;;3.17;2.93;;;8.70;99.90;;;;;;5029208;28;20300;-66
2022/03/27 03:32:29;;;;;;;2.90;2.70;;;8.70;99.90;;;;;;5030712;28;20669;-65
2022/03/27 03:34:56;;;;;;;3.10;2.90;;;8.60;99.90;;;;;;5026876;28;20311;-67
2022/03/27 03:37:23;;;;;;;3.15;2.83;;;8.60;99.90;;;;;;5028910;28;20291;-66
2022/03/27 03:39:51;;;;;;;2.92;2.72;;;8.60;99.90;;;;;;5028682;28;20598;-66
2022/03/27 03:42:18;;;;;;;3.17;2.88;;;8.60;99.90;;;;;;5031233;28;20291;-67
2022/03/27 03:44:45;;;;;;;3.00;2.80;;;8.60;99.90;;;;;;5029712;28;20661;-68
2022/03/27 03:47:13;;;;;;;2.90;2.70;;;8.50;99.90;;;;;;5029652;28;20667;-68
2022/03/27 03:49:40;;;;;;;2.83;2.63;;;8.40;99.90;;;;;;5031004;28;20288;-64
2022/03/27 03:52:08;;;;;;;2.90;2.70;;;8.40;99.90;;;;;;5027919;28;20203;-67
2022/03/27 03:54:35;;;;;;;2.53;2.38;;;8.40;99.90;;;;;;5027280;28;20229;-67
2022/03/27 03:57:05;;;;;;;2.70;2.50;;;8.40;99.90;;;;;;5030758;28;20228;-68
2022/03/27 03:59:33;;;;;;;2.72;2.50;;;8.30;99.90;;;;;;5033009;28;20580;-68
2022/03/27 04:02:00;;;;;;;2.40;2.28;;;8.20;99.90;;;;;;5033742;28;20208;-65
2022/03/27 04:04:28;;;;;;;2.38;2.28;;;8.10;99.90;;;;;;5031139;28;20256;-67
2022/03/27 04:06:55;;;;;;;2.38;2.28;;;8.10;99.90;;;;;;5032032;28;20251;-68
2022/03/27 04:09:22;;;;;;;2.63;2.47;;;8.00;99.90;;;;;;5028215;28;20287;-65
2022/03/27 04:11:49;;;;;;;3.33;2.60;;;8.00;99.90;;;;;;5028163;28;20233;-67
2022/03/27 04:14:17;;;;;;;2.60;2.42;;;7.90;99.90;;;;;;5029659;28;20717;-66
2022/03/27 04:16:44;;;;;;;2.90;2.70;;;7.90;99.90;;;;;;5028109;28;20203;-67
2022/03/27 04:19:13;;;;;;;2.50;2.30;;;7.80;99.90;;;;;;5030220;28;20707;-68
2022/03/27 04:21:40;;;;;;;2.72;2.53;;;7.80;99.90;;;;;;5032531;28;20246;-63
2022/03/27 04:24:07;;;;;;;2.70;2.50;;;7.80;99.90;;;;;;5035253;28;20221;-66
2022/03/27 04:26:35;;;;;;;2.30;2.20;;;7.70;99.90;;;;;;5029767;28;20262;-67
2022/03/27 04:29:03;;;;;;;2.55;2.35;;;7.70;99.90;;;;;;5029389;28;20292;-65
2022/03/27 04:31:31;;;;;;;2.20;2.10;;;7.60;99.90;;;;;;5030213;28;20205;-66
2022/03/27 04:33:58;;;;;;;2.53;2.38;;;7.70;99.90;;;;;;5029781;28;20286;-67
2022/03/27 04:36:26;;;;;;;2.55;2.35;;;7.70;99.90;;;;;;5028262;28;20574;-66
2022/03/27 04:38:53;;;;;;;2.28;2.17;;;7.80;99.90;;;;;;5027894;28;20295;-67
2022/03/27 04:41:20;;;;;;;2.53;2.33;;;7.70;99.90;;;;;;5027937;28;20200;-68
2022/03/27 04:43:48;;;;;;;3.25;2.50;;;7.60;99.90;;;;;;5035246;28;20300;-66
2022/03/27 04:46:15;;;;;;;2.35;2.25;;;7.50;99.90;;;;;;5038177;28;20231;-67
2022/03/27 04:48:44;;;;;;;2.80;2.60;;;7.50;99.90;;;;;;5033424;28;20327;-67
2022/03/27 04:51:12;;;;;;;2.72;2.53;;;7.40;99.90;;;;;;5033941;28;20566;-68
2022/03/27 04:53:39;;;;;;;2.83;2.63;;;7.30;99.90;;;;;;5032736;28;20585;-66
2022/03/27 04:56:06;;;;;;;2.45;2.35;;;7.20;99.90;;;;;;5036778;28;20563;-68
2022/03/27 04:58:33;;;;;;;2.88;2.60;;;7.10;99.90;;;;;;5034242;28;20283;-67
2022/03/27 05:01:00;;;;;;;2.90;2.65;;;7.10;99.90;;;;;;5043176;28;20756;-67
2022/03/27 05:03:27;;;;;;;2.40;2.20;;;7.10;99.90;;;;;;5044179;28;20228;-67
2022/03/27 05:05:55;;;;;;;2.83;2.63;;;7.10;99.90;;;;;;5034242;28;20236;-68
2022/03/27 05:08:23;;;;;;;2.65;2.45;;;7.00;99.90;;;;;;5031404;28;20232;-67
2022/03/27 05:10:49;;;;;;;2.60;2.40;;;7.00;99.90;;;;;;5035688;28;20336;-66
2022/03/27 05:13:17;;;;;;;2.60;2.40;;;7.00;99.90;;;;;;5033234;28;20291;-68
2022/03/27 05:15:44;;;;;;;2.80;2.60;;;7.00;99.90;;;;;;5035098;28;20276;-69
2022/03/27 05:18:11;;;;;;;2.63;2.45;;;7.00;99.90;;;;;;5036681;28;20200;-69
2022/03/27 05:20:40;;;;;;;2.50;2.35;;;6.90;99.90;;;;;;5035929;28;20200;-67
2022/03/27 05:23:09;;;;;;;2.50;2.40;;;6.90;99.90;;;;;;5051126;28;20205;-68
2022/03/27 05:25:40;;;;;;;2.90;2.60;;;6.80;99.90;;;;;;5053620;28;20248;-66
2022/03/27 05:28:09;;;;;;;2.23;2.13;;;7.00;99.90;;;;;;5053779;28;20196;-64
2022/03/27 05:30:36;;;;;;;2.72;2.53;;;7.00;99.90;;;;;;5048138;28;20235;-68
2022/03/27 05:33:04;;;;;;;2.55;2.33;;;6.90;99.90;;;;;;5032696;28;20308;-69
2022/03/27 05:35:31;;;;;;;2.50;2.30;;;7.00;99.90;;;;;;5033630;28;20220;-65
2022/03/27 05:37:59;;;;;;;2.23;2.13;;;6.90;99.90;;;;;;5039446;28;20212;-66
2022/03/27 05:40:27;;;;;;;2.37;2.10;;;6.80;99.90;;;;;;5034436;28;20208;-68
2022/03/27 05:42:54;;;;;;;2.60;2.40;;;6.90;99.90;;;;;;5035930;28;20283;-66
2022/03/27 05:45:23;;;;;;;2.67;2.47;;;6.80;99.90;;;;;;5031772;28;20335;-65
2022/03/27 05:47:51;;;;;;;2.50;2.30;;;6.90;99.90;;;;;;5033564;28;20215;-64
2022/03/27 05:50:22;;;;;;;2.35;2.25;;;6.90;99.90;;;;;;5032193;28;20780;-65
2022/03/27 05:52:50;;;;;;;2.40;2.25;;;7.00;99.90;;;;;;5035438;28;20205;-66
2022/03/27 05:55:17;;;;;;;2.63;2.20;;;6.90;99.90;;;;;;5028449;28;20231;-67
2022/03/27 05:57:46;;;;;;;2.10;2.00;;;7.00;99.90;;;;;;5031448;28;20330;-66
2022/03/27 06:00:16;;;;;;;2.00;1.90;;;7.10;99.90;;;;;;5031198;28;20230;-66
2022/03/27 06:02:43;;;;;;;2.35;2.25;;;7.00;99.90;;;;;;5030699;28;20288;-67
2022/03/27 06:05:11;;;;;;;2.03;1.92;;;7.10;99.90;;;;;;5026422;28;20229;-67
2022/03/27 06:07:45;;;;;;;2.47;2.28;;;7.10;99.90;;;;;;5035982;28;20655;-65
2022/03/27 06:10:13;;;;;;;2.22;2.13;;;7.20;99.90;;;;;;5030334;28;20283;-66
2022/03/27 06:12:40;;;;;;;2.60;2.40;;;7.20;99.90;;;;;;5026786;28;20243;-66
2022/03/27 06:15:10;;;;;;;2.25;2.15;;;7.20;99.90;;;;;;5028671;28;20231;-67
2022/03/27 06:17:42;;;;;;;2.10;2.00;;;7.20;99.90;;;;;;5029100;28;20613;-66
2022/03/27 06:20:11;;;;;;;2.35;2.15;;;7.20;99.90;;;;;;5027019;28;20294;-66
2022/03/27 06:22:39;;;;;;;2.38;2.28;;;7.30;99.90;;;;;;5028233;28;20240;-65
2022/03/27 06:25:07;;;;;;;2.35;2.25;;;7.40;99.90;;;;;;5025637;28;20251;-66
2022/03/27 06:27:34;;;;;;;2.17;2.08;;;7.50;99.90;;;;;;5035000;28;20201;-67
2022/03/27 06:30:01;;;;;;;2.92;2.42;;;7.50;99.90;;;;;;5040587;28;20255;-67
2022/03/27 06:32:30;;;;;;;2.17;2.08;;;7.60;99.90;;;;;;5032865;28;20288;-66
2022/03/27 06:34:58;;;;;;;2.47;2.38;;;7.70;99.90;;;;;;5030197;28;20323;-66
2022/03/27 06:37:25;;;;;;;2.65;2.45;;;7.80;99.90;;;;;;5032037;28;20211;-66
2022/03/27 06:39:54;;;;;;;2.40;2.20;;;7.90;99.90;;;;;;5032426;28;20299;-65
2022/03/27 06:42:21;;;;;;;2.78;2.47;;;7.90;99.90;;;;;;5031530;28;20205;-66
2022/03/27 06:44:48;;;;;;;2.45;2.25;;;8.00;99.90;;;;;;5032334;28;20789;-67
2022/03/27 06:47:15;;;;;;;3.20;2.90;;;8.10;99.90;;;;;;5034051;28;20650;-66
2022/03/27 06:49:43;;;;;;;2.83;2.63;;;8.10;99.90;;;;;;5037752;28;20258;-67
2022/03/27 06:52:10;;;;;;;3.00;2.80;;;8.20;99.90;;;;;;5031829;28;20207;-66
2022/03/27 06:54:37;;;;;;;3.08;2.88;;;8.30;99.90;;;;;;5041036;28;20311;-67
2022/03/27 06:57:04;;;;;;;3.15;2.95;;;8.30;99.90;;;;;;5052565;28;20189;-66
2022/03/27 07:03:01;;;;;;;4.10;3.33;;;8.30;99.90;;;;;;5054610;28;20188;-67
2022/03/27 07:05:07;;;;;;;3.50;3.28;;;8.30;99.90;;;;;;5047757;22;20313;-61
2022/03/27 07:07:34;;;;;;;4.00;3.70;;;8.40;99.90;;;;;;5012587;28;20205;-62
2022/03/27 07:10:00;;;;;;;3.70;3.40;;;8.50;99.90;;;;;;5020247;28;20637;-64
2022/03/27 07:12:28;;;;;;;3.05;2.85;;;8.60;99.90;;;;;;5011958;28;20865;-63
2022/03/27 07:14:54;;;;;;;3.50;3.20;;;8.70;99.90;;;;;;5032776;28;20263;-62
2022/03/27 07:17:21;;;;;;;3.15;2.95;;;8.80;99.90;;;;;;5025293;28;20303;-62
2022/03/27 07:19:49;;;;;;;3.10;2.90;;;8.90;99.90;;;;;;5012379;28;20210;-62
2022/03/27 07:22:17;;;;;;;3.17;2.97;;;9.00;99.90;;;;;;5027008;28;20204;-64
2022/03/27 07:24:45;;;;;;;3.35;3.15;;;9.40;99.90;;;;;;5032417;28;20592;-63
2022/03/27 07:27:12;;;;;;;3.37;3.17;;;9.20;99.90;;;;;;5032693;28;20209;-64
2022/03/27 07:29:40;;;;;;;3.67;3.37;;;9.30;99.90;;;;;;5032125;28;20209;-63
2022/03/27 07:32:08;;;;;;;3.38;3.15;;;9.40;99.90;;;;;;5031856;28;20207;-62
2022/03/27 07:34:36;;;;;;;3.40;3.20;;;9.40;99.90;;;;;;5031871;28;20228;-62
2022/03/27 07:37:03;;;;;;;3.10;2.90;;;9.40;99.90;;;;;;5033158;28;20316;-64
2022/03/27 07:39:32;;;;;;;3.40;3.10;;;9.50;99.90;;;;;;5031802;28;20215;-63
2022/03/27 07:41:59;;;;;;;3.95;3.65;;;9.50;99.90;;;;;;5032482;28;20224;-63
2022/03/27 07:44:26;;;;;;;3.65;3.35;;;9.50;99.90;;;;;;5015400;28;20312;-63
2022/03/27 07:46:56;;;;;;;3.80;3.50;;;9.70;99.90;;;;;;5018754;28;20300;-63
2022/03/27 07:49:24;;;;;;;3.10;2.90;;;9.70;99.90;;;;;;5032235;28;20238;-63
2022/03/27 07:51:51;;;;;;;3.38;3.17;;;9.90;99.90;;;;;;5031355;28;20212;-63
2022/03/27 07:54:19;;;;;;;3.75;3.45;;;10.10;99.90;;;;;;5030835;28;20246;-62
2022/03/27 07:56:47;;;;;;;3.88;3.58;;;10.20;99.90;;;;;;5015279;28;20574;-63
2022/03/27 07:59:14;;;;;;;3.80;3.50;;;10.20;99.90;;;;;;5031900;28;20247;-63
2022/03/27 08:01:41;;;;;;;3.47;3.20;;;10.20;99.90;;;;;;5033329;28;20299;-63
2022/03/27 08:04:08;;;;;;;3.22;2.92;;;10.50;99.90;;;;;;5032304;28;20228;-63
2022/03/27 08:06:36;;;;;;;3.72;3.42;;;10.60;99.90;;;;;;5031244;28;20201;-63
2022/03/27 08:09:04;;;;;;;3.10;2.90;;;10.70;99.90;;;;;;5033942;28;20224;-65
2022/03/27 08:11:32;;;;;;;3.33;3.13;;;10.90;99.90;;;;;;5023344;28;20655;-64
2022/03/27 08:14:00;;;;;;;3.78;3.47;;;11.10;99.90;;;;;;5022195;28;20296;-64
2022/03/27 08:16:27;;;;;;;3.40;3.20;;;11.20;99.90;;;;;;5032738;28;20256;-64
2022/03/27 08:18:54;;;;;;;4.07;3.75;;;11.30;99.90;;;;;;5027248;28;20206;-63
2022/03/27 08:21:21;;;;;;;3.75;3.50;;;11.30;99.90;;;;;;4994752;28;20245;-64
2022/03/27 08:23:48;;;;;;;3.70;3.40;;;11.40;99.90;;;;;;5032348;28;20254;-64
2022/03/27 08:29:02;;;;;;;3.58;3.38;;;11.40;99.90;;;;;;5031746;28;20188;-65
2022/03/27 08:31:30;;;;;;;3.50;3.30;;;11.70;99.90;;;;;;5031670;28;20193;-63
2022/03/27 08:33:57;;;;;;;3.63;3.42;;;11.90;99.90;;;;;;5027349;28;20206;-64
2022/03/27 08:36:25;;;;;;;3.63;3.33;;;12.00;99.90;;;;;;5012193;28;20226;-62
2022/03/27 08:38:52;;;;;;;3.88;3.58;;;12.20;99.90;;;;;;5012369;28;20244;-63
2022/03/27 08:41:20;;;;;;;3.80;3.30;;;12.40;99.90;;;;;;5018908;28;20675;-64
2022/03/27 08:43:48;;;;;;;3.85;3.55;;;12.60;99.90;;;;;;5019643;28;20205;-63
2022/03/27 08:46:18;;;;;;;3.58;3.38;;;12.70;99.90;;;;;;5009914;28;20260;-63
2022/03/27 08:48:50;;;;;;;4.43;4.05;;;12.80;99.90;;;;;;5011395;28;20236;-64
2022/03/27 08:51:29;;;;;;;3.63;3.33;;;12.60;99.90;;;;;;5009041;28;20253;-64
2022/03/27 08:54:03;;;;;;;3.35;3.15;;;12.70;99.90;;;;;;5013311;28;20200;-64
2022/03/27 08:56:31;;;;;;;4.13;3.80;;;13.00;99.90;;;;;;5013455;28;20236;-64
2022/03/27 08:59:03;;;;;;;3.67;3.38;;;13.10;99.90;;;;;;4996955;28;20907;-64
2022/03/27 09:01:31;;;;;;;4.20;3.75;;;13.20;99.90;;;;;;5001024;28;20208;-63
2022/03/27 09:03:58;;;;;;;3.63;3.33;;;13.20;99.90;;;;;;4998385;28;20639;-63
2022/03/27 09:06:25;;;;;;;3.60;3.33;;;13.40;99.90;;;;;;5012510;28;20311;-63
2022/03/27 09:08:53;;;;;;;4.45;4.03;;;13.50;99.90;;;;;;5021561;28;20201;-65
2022/03/27 09:11:22;;;;;;;4.18;3.88;;;13.70;99.90;;;;;;5012452;28;20213;-62
2022/03/27 09:13:52;;;;;;;3.70;3.50;;;13.70;99.90;;;;;;5019973;28;20234;-63
2022/03/27 09:16:20;;;;;;;3.70;3.40;;;13.90;99.90;;;;;;5014771;28;20244;-63
2022/03/27 09:18:52;;;;;;;3.78;3.33;;;14.10;99.90;;;;;;5030672;28;20667;-62
2022/03/27 09:21:21;;;;;;;4.63;3.85;;;14.10;99.90;;;;;;5011728;28;20205;-63
2022/03/27 09:23:53;;;;;;;5.03;3.60;;;14.10;99.90;;;;;;5017360;28;20213;-63
2022/03/27 09:26:21;;;;;;;3.83;3.53;;;14.40;99.90;;;;;;5027606;28;20722;-64
2022/03/27 09:28:49;;;;;;;4.20;3.80;;;14.50;99.90;;;;;;5033056;28;20201;-65
2022/03/27 09:31:25;;;;;;;3.60;3.38;;;14.70;99.90;;;;;;5036792;28;20262;-64
2022/03/27 09:33:55;;;;;;;3.90;3.60;;;14.80;99.90;;;;;;5037289;28;20208;-63
2022/03/27 09:36:24;;;;;;;3.47;3.22;;;15.00;99.90;;;;;;5033316;28;20268;-64
2022/03/27 09:39:03;;;;;;;3.90;3.60;;;15.10;99.90;;;;;;5020173;28;20270;-64
2022/03/27 09:41:33;;;;;;;3.83;3.53;;;15.20;99.90;;;;;;5037023;28;20288;-63
2022/03/27 09:44:02;;;;;;;3.67;3.38;;;15.30;99.90;;;;;;5034829;28;20703;-64
2022/03/27 09:46:50;;;;;;;3.97;3.67;;;15.50;99.90;;;;;;5034825;28;20221;-65
2022/03/27 09:49:20;;;;;;;3.50;3.20;;;15.60;99.90;;;;;;5035276;28;20235;-64
2022/03/27 09:51:55;;;;;;;4.03;3.72;;;15.70;99.90;;;;;;5030080;28;20209;-63
2022/03/27 09:54:22;;;;;;;3.78;3.58;;;15.70;99.90;;;;;;4998121;28;20206;-64
2022/03/27 09:56:50;;;;;;;4.53;3.63;;;15.80;99.90;;;;;;5013491;28;20325;-64
2022/03/27 09:59:27;;;;;;;3.95;3.67;;;15.80;99.90;;;;;;5024319;28;20269;-64
2022/03/27 10:01:54;;;;;;;4.07;3.80;;;15.90;99.90;;;;;;5023014;28;20210;-64
2022/03/27 10:04:22;;;;;;;3.60;3.30;;;16.00;99.90;;;;;;5031659;28;20260;-64
2022/03/27 10:06:49;;;;;;;3.58;3.28;;;16.30;99.90;;;;;;5025800;28;20324;-63
2022/03/27 10:09:16;;;;;;;4.30;4.00;;;16.50;99.90;;;;;;5025036;28;20702;-65
2022/03/27 10:11:44;;;;;;;3.58;3.30;;;16.60;99.90;;;;;;5020322;28;20209;-64
2022/03/27 10:14:11;;;;;;;4.22;3.83;;;16.60;99.90;;;;;;5008320;28;20742;-65
2022/03/27 10:16:46;;;;;;;3.80;3.50;;;16.60;99.90;;;;;;5005835;28;20281;-64
2022/03/27 10:19:31;;;;;;;4.00;3.70;;;16.80;99.90;;;;;;5002087;28;20954;-64
2022/03/27 10:21:59;;;;;;;3.90;3.60;;;17.00;99.90;;;;;;5000294;28;20197;-68
2022/03/27 10:24:30;;;;;;;3.88;3.42;;;17.20;99.90;;;;;;4999960;28;20226;-63
2022/03/27 10:27:01;;;;;;;3.50;3.30;;;17.30;99.90;;;;;;5002468;28;20201;-63
2022/03/27 10:29:29;;;;;;;3.15;2.97;;;17.40;99.90;;;;;;5001321;28;20208;-62
2022/03/27 10:31:57;;;;;;;3.50;3.25;;;17.60;99.90;;;;;;5001489;28;20201;-63
2022/03/27 10:34:25;;;;;;;3.70;3.40;;;17.70;99.90;;;;;;4998082;28;20202;-62
2022/03/27 10:37:00;;;;;;;3.67;3.47;;;17.90;99.90;;;;;;5004777;28;20249;-63
2022/03/27 10:39:31;;;;;;;3.55;3.35;;;17.90;99.90;;;;;;5006058;28;20229;-63
2022/03/27 10:42:06;;;;;;;3.70;3.40;;;18.00;99.90;;;;;;4996617;28;20213;-63
2022/03/27 10:44:39;;;;;;;3.63;3.33;;;18.00;99.90;;;;;;5006588;28;20248;-64
2022/03/27 10:47:14;;;;;;;3.78;3.47;;;18.20;99.90;;;;;;5018907;28;20281;-65
2022/03/27 10:49:43;;;;;;;3.47;3.28;;;18.20;99.90;;;;;;5031331;28;20212;-63
2022/03/27 10:52:11;;;;;;;3.72;3.45;;;18.40;99.90;;;;;;5034582;28;20281;-63
2022/03/27 10:54:56;;;;;;;3.40;3.20;;;18.40;99.90;;;;;;5033824;28;20235;-65
2022/03/27 10:57:31;;;;;;;3.42;3.13;;;18.60;99.90;;;;;;5015289;28;20288;-64
2022/03/27 10:59:58;;;;;;;3.50;3.28;;;18.80;99.90;;;;;;5028817;28;20291;-63
2022/03/27 11:02:46;;;;;;;3.95;3.65;;;18.90;99.90;;;;;;5017130;28;20297;-63
2022/03/27 11:05:50;;;;;;;3.83;3.60;;;19.10;99.90;;;;;;5031567;28;20669;-64
2022/03/27 11:08:48;;;;;;;3.35;3.15;;;19.10;99.90;;;;;;5024483;28;20204;-63
2022/03/27 11:12:01;;;;;;;4.03;3.63;;;19.20;99.90;;;;;;5009041;28;20213;-63
2022/03/27 11:15:01;;;;;;;3.45;3.17;;;19.20;99.90;;;;;;5010549;28;20221;-64
2022/03/27 11:17:43;;;;;;;3.85;3.55;;;19.40;99.90;;;;;;4997470;28;20324;-64
2022/03/27 11:20:26;;;;;;;4.00;3.70;;;19.50;99.90;;;;;;4996927;28;20285;-63
2022/03/27 11:22:54;;;;;;;3.40;3.20;;;19.50;99.90;;;;;;4984540;28;20209;-64
2022/03/27 11:25:46;;;;;;;3.30;3.10;;;19.60;99.90;;;;;;4995114;28;20712;-65
2022/03/27 11:28:15;;;;;;;3.63;3.33;;;19.80;99.70;;;;;;4984658;28;20209;-65
2022/03/27 11:31:15;;;;;;;3.70;3.40;;;19.90;99.40;;;;;;5000826;28;20206;-66
2022/03/27 11:33:44;;;;;;;4.00;3.70;;;19.90;99.20;;;;;;5001415;28;20198;-63
2022/03/27 11:36:25;;;;;;;4.10;3.80;;;20.00;98.90;;;;;;5000915;28;20647;-65
2022/03/27 11:39:06;;;;;;;3.20;3.00;;;20.10;98.80;;;;;;5009185;28;20205;-64
2022/03/27 11:41:38;;;;;;;3.97;3.58;;;20.40;98.60;;;;;;5005406;28;20212;-64
2022/03/27 11:47:12;;;;;;;3.50;3.20;;;20.60;97.20;;;;;;5008824;28;20272;-64
2022/03/27 11:49:41;;;;;;;3.40;3.20;;;20.50;96.60;;;;;;5014609;28;20232;-64
2022/03/27 11:52:10;;;;;;;3.50;3.30;;;20.50;96.60;;;;;;5013471;28;20241;-65
2022/03/27 11:54:37;;;;;;;4.47;3.17;;;20.60;96.30;;;;;;5004160;28;20290;-64
2022/03/27 11:57:07;;;;;;;3.47;3.20;;;20.80;96.30;;;;;;4995811;28;20273;-66
2022/03/27 11:59:44;;;;;;;3.10;2.90;;;21.10;96.50;;;;;;5005276;28;20202;-66
2022/03/27 12:02:12;;;;;;;3.13;2.90;;;21.30;96.20;;;;;;4999030;28;20204;-64
2022/03/27 12:04:52;;;;;;;2.75;2.60;;;21.30;95.20;;;;;;4997328;28;20727;-65
2022/03/27 12:07:21;;;;;;;2.92;2.65;;;21.30;95.40;;;;;;4995415;28;20205;-63
2022/03/27 12:09:56;;;;;;;3.45;3.25;;;21.50;95.40;;;;;;4999615;28;20200;-65
2022/03/27 12:12:26;;;;;;;2.90;2.70;;;21.40;94.30;;;;;;5001685;28;20301;-65
2022/03/27 12:14:54;;;;;;;3.28;2.97;;;21.40;94.40;;;;;;4996988;28;20327;-66
2022/03/27 12:17:22;;;;;;;3.30;3.00;;;21.50;93.90;;;;;;4997339;28;20260;-66
2022/03/27 12:19:59;;;;;;;3.00;2.80;;;21.50;93.80;;;;;;4995394;28;20867;-63
2022/03/27 12:22:38;;;;;;;2.85;2.65;;;21.50;93.90;;;;;;4996969;28;20260;-65
2022/03/27 12:25:10;;;;;;;2.95;2.75;;;21.40;93.20;;;;;;5004351;28;20726;-64
2022/03/27 12:30:33;;;;;;;3.28;2.97;;;21.60;93.90;;;;;;4991779;28;20237;-65
2022/03/27 12:33:01;;;;;;;2.75;2.55;;;21.70;93.20;;;;;;5002749;28;20215;-64
2022/03/27 12:35:29;;;;;;;2.92;2.70;;;21.70;93.00;;;;;;5010823;28;20232;-64
2022/03/27 12:37:56;;;;;;;3.10;2.90;;;21.80;92.70;;;;;;5001317;28;20280;-65
2022/03/27 12:40:25;;;;;;;2.83;2.63;;;21.90;92.80;;;;;;4999374;28;20519;-65
2022/03/27 12:42:54;;;;;;;2.88;2.67;;;22.00;92.10;;;;;;5005984;28;20208;-65
2022/03/27 12:45:32;;;;;;;3.10;2.80;;;21.80;92.00;;;;;;4998828;28;20257;-64
2022/03/27 12:48:03;;;;;;;2.95;2.75;;;21.90;91.90;;;;;;5003310;28;20769;-63
2022/03/27 12:50:33;;;;;;;2.97;2.78;;;21.90;91.50;;;;;;4999705;28;20221;-63
2022/03/27 12:53:01;;;;;;;2.85;2.60;;;21.90;91.50;;;;;;5012401;28;20247;-65
2022/03/27 12:55:47;;;;;;;2.72;2.53;;;21.90;91.20;;;;;;5023431;28;20234;-65
2022/03/27 12:58:16;;;;;;;2.90;2.70;;;21.90;90.80;;;;;;5045140;28;20224;-65
2022/03/27 13:00:46;;;;;;;2.50;2.30;;;22.00;91.00;;;;;;5043437;28;20211;-65
2022/03/27 13:03:16;;;;;;;2.53;2.42;;;22.10;90.50;;;;;;5037708;28;20228;-66
2022/03/27 13:05:44;;;;;;;3.15;2.63;;;22.20;90.40;;;;;;5051787;23;20258;-66
2022/03/27 13:08:12;;;;;;;2.70;2.50;;;22.10;90.20;;;;;;5013533;28;20213;-67
2022/03/27 13:10:39;;;;;;;2.88;2.63;;;22.30;89.90;;;;;;5017861;28;20296;-67
2022/03/27 13:13:08;;;;;;;2.75;2.55;;;22.30;89.60;;;;;;5029969;28;20266;-66
2022/03/27 13:15:52;;;;;;;2.40;2.20;;;22.30;89.70;;;;;;5013556;28;20224;-68
2022/03/27 13:18:29;;;;;;;2.95;2.75;;;22.40;90.00;;;;;;5025166;28;20305;-67